Data for 05/01/2014

Time Sea-Level Adjusted Pressure Absolute Pressure Temperature Relative Humidity Dew Point   
(mb) (inHg) (mb) (inHg) (C) (F) (%) (C) (F)
00:05 1028 30.36 857 25.31 4.8 40.6 43 -6.6 20.1
00:10 1028 30.36 857 25.31 5.1 41.2 42 -6.7 19.9
00:15 1028 30.36 857 25.31 5.3 41.6 42 -6.7 20
00:20 1028 30.36 857 25.31 5.3 41.5 42 -6.5 20.3
00:25 1028 30.36 857 25.31 5 41.1 43 -6.6 20.1
00:30 1028 30.36 857 25.31 5.2 41.4 41 -6.9 19.5
00:35 1028 30.36 857 25.31 5.1 41.3 42 -6.7 20
00:40 1028 30.36 857 25.31 5.2 41.4 41 -7 19.4
00:45 1027 30.33 857 25.31 5.2 41.4 42 -6.7 19.9
00:50 1027 30.33 857 25.31 4.9 40.9 43 -6.7 19.9
00:55 1027 30.33 857 25.31 4.7 40.4 45 -6.3 20.7
01:00 1027 30.33 857 25.31 4.4 40 46 -6.1 21
01:05 1027 30.33 857 25.31 4.3 39.7 46 -6.4 20.4
01:10 1027 30.33 857 25.31 4.5 40 44 -6.9 19.7
01:15 1027 30.33 857 25.31 4.9 40.8 42 -6.9 19.7
01:20 1027 30.33 856 25.28 5 41 43 -6.7 20
01:25 1027 30.33 856 25.28 4.7 40.4 44 -6.4 20.4
01:30 1027 30.33 856 25.28 4.5 40.1 45 -6.5 20.2
01:35 1027 30.33 856 25.28 4.4 39.9 45 -6.4 20.5
01:40 1027 30.33 856 25.28 4.2 39.5 47 -6.2 20.9
01:45 1027 30.33 856 25.28 4.2 39.5 45 -6.8 19.8
01:50 1027 30.33 856 25.28 4.3 39.7 44 -6.8 19.8
01:55 1027 30.33 856 25.28 4.3 39.7 45 -6.6 20.2
02:00 1027 30.33 856 25.28 4.2 39.5 46 -6.4 20.5
02:05 1027 30.33 856 25.28 3.9 39.1 47 -6.3 20.6
02:10 1027 30.33 856 25.28 3.7 38.7 48 -6.4 20.5
02:15 1027 30.33 856 25.28 3.8 38.8 46 -6.7 20
02:20 1027 30.33 856 25.28 3.8 38.8 47 -6.4 20.4
02:25 1027 30.33 856 25.28 3.7 38.7 48 -6.3 20.6
02:30 1027 30.33 856 25.28 3.6 38.5 48 -6.5 20.3
02:35 1027 30.33 856 25.28 3.7 38.6 47 -6.6 20.1
02:40 1027 30.33 856 25.28 3.9 39.1 46 -6.8 19.8
02:45 1026 30.3 856 25.28 4 39.2 46 -6.7 20
02:50 1026 30.3 856 25.28 4 39.2 46 -6.6 20.1
02:55 1026 30.3 856 25.28 3.9 39 46 -6.6 20.1
03:00 1026 30.3 856 25.28 3.8 38.9 46 -6.6 20.1
03:05 1026 30.3 856 25.28 3.8 38.9 46 -6.7 20
03:10 1026 30.3 856 25.28 3.7 38.7 47 -6.6 20.1
03:15 1026 30.3 856 25.28 3.9 39 48 -6.3 20.7
03:20 1026 30.3 856 25.28 3.6 38.5 47 -6.6 20.2
03:25 1026 30.3 856 25.28 3.9 38.9 46 -6.8 19.7
03:30 1026 30.3 856 25.28 4.1 39.3 44 -7.2 19.1
03:35 1026 30.3 856 25.28 4.4 39.9 44 -7 19.5
03:40 1026 30.3 856 25.28 4.2 39.5 45 -6.7 20
03:45 1026 30.3 856 25.28 3.9 39 46 -6.7 19.9
03:50 1026 30.3 856 25.28 3.8 38.8 46 -6.8 19.8
03:55 1026 30.3 856 25.28 3.8 38.9 46 -6.6 20.1
04:00 1026 30.3 856 25.28 3.7 38.7 47 -6.6 20.1
04:05 1026 30.3 856 25.28 3.7 38.7 47 -6.7 20
04:10 1026 30.3 856 25.28 3.8 38.8 46 -6.8 19.8
04:15 1026 30.3 856 25.28 3.7 38.7 47 -6.6 20.1
04:20 1026 30.3 856 25.28 3.6 38.4 48 -6.5 20.3
04:25 1027 30.33 856 25.28 3.5 38.3 47 -6.9 19.7
04:30 1027 30.33 856 25.28 3.7 38.6 46 -7 19.5
04:35 1027 30.33 856 25.28 3.9 39 45 -6.9 19.6
04:40 1027 30.33 856 25.28 3.9 39 46 -6.8 19.8
04:45 1027 30.33 856 25.28 3.7 38.6 48 -6.4 20.4
04:50 1027 30.33 856 25.28 3.3 38 48 -6.5 20.3
04:55 1027 30.33 856 25.28 3.2 37.7 49 -6.6 20.2
05:00 1027 30.33 856 25.28 3.3 37.9 48 -6.6 20.1
05:05 1027 30.33 856 25.28 3.4 38.1 49 -6.4 20.5
05:10 1027 30.33 856 25.28 3.4 38.2 50 -6 21.3
05:15 1027 30.33 856 25.28 3 37.4 52 -5.9 21.4
05:20 1026 30.3 856 25.28 2.6 36.6 54 -5.8 21.6
05:25 1027 30.33 856 25.28 2.1 35.7 57 -5.6 21.9
05:30 1027 30.33 856 25.28 1.7 35.1 58 -5.8 21.6
05:35 1027 30.33 856 25.28 2 35.6 56 -6 21.2
05:40 1026 30.3 856 25.28 2.2 36 56 -5.7 21.8
05:45 1026 30.3 856 25.28 2.1 35.8 57 -5.5 22.1
05:50 1027 30.33 856 25.28 2 35.7 54 -6.3 20.7
05:55 1027 30.33 856 25.28 2.5 36.6 52 -6.3 20.7
06:00 1027 30.33 856 25.28 3 37.3 51 -6.2 20.9
06:05 1027 30.33 856 25.28 3.2 37.7 50 -6.2 20.9
06:10 1027 30.33 856 25.28 3.5 38.3 49 -6.1 21
06:15 1027 30.33 856 25.28 3.8 38.9 49 -6 21.2
06:20 1027 30.33 856 25.28 4.1 39.3 47 -6.2 20.8
06:25 1027 30.33 856 25.28 4.3 39.7 47 -6.1 21
06:30 1027 30.33 856 25.28 4.4 40 47 -5.9 21.3
06:35 1027 30.33 856 25.28 4.7 40.4 45 -6.3 20.7
06:40 1027 30.33 856 25.28 5.3 41.6 42 -6.5 20.3
06:45 1027 30.33 856 25.28 5.8 42.4 41 -6.6 20.2
06:50 1027 30.33 856 25.28 6.1 43 40 -6.4 20.5
06:55 1027 30.33 856 25.28 6.3 43.3 39 -6.5 20.3
07:00 1027 30.33 856 25.28 6.6 44 39 -6.3 20.7
07:05 1027 30.33 856 25.28 6.9 44.4 38 -6.5 20.3
07:10 1027 30.33 856 25.28 7.6 45.6 37 -6.2 20.8
07:15 1027 30.33 856 25.28 7.7 45.8 36 -6.5 20.4
07:20 1027 30.33 856 25.28 8.2 46.7 34 -6.6 20.1
07:25 1027 30.33 856 25.28 8.7 47.7 34 -6.3 20.7
07:30 1026 30.3 856 25.28 9.4 48.8 32 -6.5 20.3
07:35 1026 30.3 856 25.28 9.8 49.6 32 -6 21.2
07:40 1026 30.3 856 25.28 10.2 50.3 30 -6.4 20.4
07:45 1027 30.33 856 25.28 10.5 50.9 30 -6.3 20.6
07:50 1026 30.3 856 25.28 10.5 51 30 -6.4 20.5
07:55 1026 30.3 856 25.28 10.5 50.9 29 -6.8 19.8
08:00 1026 30.3 856 25.28 11.2 52.1 28 -6.5 20.3
08:05 1026 30.3 856 25.28 11.5 52.8 28 -6.4 20.4
08:10 1026 30.3 856 25.28 11.7 53 27 -6.8 19.8
08:15 1026 30.3 856 25.28 11.9 53.3 27 -6.5 20.3
08:20 1026 30.3 856 25.28 12 53.6 27 -6.5 20.3
08:25 1026 30.3 855 25.25 12.4 54.3 26 -6.5 20.3
08:30 1026 30.3 855 25.25 13.1 55.6 25 -6.4 20.4
08:35 1026 30.3 855 25.25 13.1 55.5 26 -6.1 21.1
08:40 1026 30.3 855 25.25 13.2 55.8 26 -6.1 21.1
08:45 1026 30.3 855 25.25 13.4 56.1 25 -6 21.2
08:50 1026 30.3 855 25.25 13.5 56.3 25 -5.9 21.4
08:55 1026 30.3 855 25.25 14 57.1 25 -5.8 21.5
09:00 1026 30.3 855 25.25 14.2 57.5 23 -6.4 20.5
09:05 1026 30.3 855 25.25 14 57.2 25 -5.8 21.6
09:10 1026 30.3 855 25.25 13.6 56.4 26 -5.6 21.9
09:15 1026 30.3 855 25.25 13.8 56.9 25 -6 21.1
09:20 1026 30.3 855 25.25 14.6 58.2 24 -5.9 21.4
09:25 1026 30.3 855 25.25 14.8 58.6 23 -5.8 21.5
09:30 1026 30.3 855 25.25 14.5 58.2 24 -5.9 21.5
09:35 1026 30.3 855 25.25 14.6 58.2 23 -6 21.2
09:40 1026 30.3 855 25.25 14.3 57.7 24 -5.9 21.5
09:45 1026 30.3 855 25.25 14.8 58.6 23 -6 21.2
09:50 1026 30.3 855 25.25 15.3 59.6 23 -5.9 21.4
09:55 1026 30.3 855 25.25 15.7 60.3 23 -5.2 22.6
10:00 1026 30.3 855 25.25 15.7 60.2 24 -4.9 23.1
10:05 1026 30.3 855 25.25 15.7 60.3 23 -5.5 22.1
10:10 1026 30.3 855 25.25 15.7 60.3 23 -5.3 22.4
10:15 1026 30.3 855 25.25 16.2 61.1 22 -5.3 22.4
10:20 1026 30.3 855 25.25 15.6 60 23 -5.1 22.8
10:25 1026 30.3 855 25.25 15.3 59.6 23 -5.8 21.6
10:30 1026 30.3 855 25.25 15.9 60.7 22 -5.6 22
10:35 1026 30.3 855 25.25 16.1 61 22 -5.3 22.5
10:40 1026 30.3 855 25.25 16.6 61.8 21 -5.4 22.2
10:45 1025 30.27 855 25.25 16.1 61 23 -5.1 22.7
10:50 1025 30.27 855 25.25 16.4 61.5 22 -5.2 22.6
10:55 1025 30.27 855 25.25 16.9 62.5 22 -5.1 22.8
11:00 1025 30.27 855 25.25 16.8 62.2 22 -5.2 22.7
11:05 1025 30.27 854 25.22 15.9 60.6 22 -5.5 22.1
11:10 1025 30.27 854 25.22 16.3 61.3 22 -5.4 22.2
11:15 1025 30.27 854 25.22 16.3 61.3 22 -5.6 22
11:20 1025 30.27 854 25.22 17.3 63.1 21 -5.1 22.9
11:25 1025 30.27 854 25.22 17.7 63.8 21 -5.1 22.8
11:30 1025 30.27 854 25.22 17.6 63.6 20 -5.3 22.4
11:35 1025 30.27 854 25.22 16.6 61.8 22 -5.4 22.3
11:40 1025 30.27 854 25.22 17.5 63.5 21 -4.7 23.6
11:45 1025 30.27 854 25.22 18.2 64.8 20 -4.8 23.4
11:50 1025 30.27 854 25.22 17.9 64.2 21 -4.7 23.5
11:55 1025 30.27 854 25.22 16.7 62 22 -4.9 23.2
12:00 1025 30.27 854 25.22 17.4 63.3 21 -5.2 22.6
12:05 1025 30.27 854 25.22 17.6 63.8 20 -5.2 22.7
12:10 1024 30.24 854 25.22 17.5 63.6 20 -5.4 22.3
12:15 1024 30.24 854 25.22 17.3 63.2 20 -5.5 22.1
12:20 1024 30.24 854 25.22 17.2 63 21 -5.3 22.5
12:25 1024 30.24 853 25.19 17.6 63.7 21 -4.7 23.6
12:30 1024 30.24 853 25.19 17.1 62.8 21 -5.4 22.4
12:35 1024 30.24 853 25.19 17.9 64.2 20 -5 22.9
12:40 1024 30.24 853 25.19 18.2 64.7 21 -4.5 23.9
12:45 1024 30.24 853 25.19 18.3 64.9 20 -4.7 23.5
12:50 1024 30.24 853 25.19 18.7 65.6 20 -4.8 23.3
12:55 1024 30.24 853 25.19 19.2 66.6 19 -5 23
13:00 1024 30.24 853 25.19 19.9 67.8 17 -5.8 21.5
13:05 1024 30.24 853 25.19 19.5 67 18 -5.2 22.7
13:10 1024 30.24 853 25.19 19.2 66.5 19 -4.6 23.7
13:15 1024 30.24 853 25.19 18.8 65.9 20 -4.3 24.2
13:20 1024 30.24 853 25.19 18.5 65.3 21 -4.4 24.1
13:25 1024 30.24 853 25.19 18.8 65.8 19 -5.2 22.7
13:30 1024 30.24 853 25.19 19.6 67.3 18 -4.9 23.1
13:35 1024 30.24 853 25.19 20.1 68.3 18 -4.9 23.2
13:40 1024 30.24 853 25.19 20.2 68.3 19 -4.4 24.1
13:45 1024 30.24 853 25.19 18.7 65.6 19 -5.2 22.6
13:50 1023 30.21 853 25.19 19.2 66.5 21 -3.4 25.8
13:55 1023 30.21 853 25.19 18.6 65.4 21 -4.3 24.2
14:00 1023 30.21 852 25.16 19.7 67.4 19 -4.5 23.9
14:05 1023 30.21 852 25.16 19.7 67.4 19 -4.3 24.3
14:10 1023 30.21 852 25.16 19.3 66.8 19 -4.5 24
14:15 1023 30.21 852 25.16 19.8 67.6 19 -4.2 24.5
14:20 1023 30.21 852 25.16 20.2 68.3 19 -4.1 24.6
14:25 1023 30.21 852 25.16 20.8 69.4 18 -4.5 23.9
14:30 1023 30.21 852 25.16 20.7 69.3 18 -4.6 23.8
14:35 1023 30.21 852 25.16 21 69.9 17 -4.6 23.6
14:40 1023 30.21 852 25.16 21.2 70.1 18 -4.1 24.7
14:45 1023 30.21 852 25.16 20.9 69.6 18 -4 24.8
14:50 1023 30.21 852 25.16 20.8 69.4 18 -4 24.8
14:55 1023 30.21 852 25.16 20 68 20 -3.4 25.8
15:00 1023 30.21 852 25.16 20.2 68.4 19 -3.8 25.1
15:05 1023 30.21 852 25.16 20.5 68.8 19 -4.1 24.5
15:10 1023 30.21 852 25.16 20.6 69.1 19 -4 24.8
15:15 1022 30.18 852 25.16 20.9 69.5 18 -3.8 25.1
15:20 1022 30.18 852 25.16 20.3 68.5 19 -4.3 24.3
15:25 1022 30.18 852 25.16 20.2 68.3 20 -3.5 25.7
15:30 1022 30.18 851 25.13 20.6 69 19 -3.7 25.4
15:35 1022 30.18 851 25.13 20.4 68.8 20 -3 26.6
15:40 1022 30.18 851 25.13 19.4 67 21 -3.1 26.4
15:45 1022 30.18 851 25.13 19.3 66.7 20 -3.9 24.9
15:50 1022 30.18 851 25.13 19.6 67.3 20 -4 24.9
15:55 1022 30.18 851 25.13 20.2 68.4 20 -3.2 26.2
16:00 1022 30.18 851 25.13 20.5 68.8 19 -3.6 25.6
16:05 1022 30.18 851 25.13 20.1 68.1 20 -3.2 26.2
16:10 1022 30.18 851 25.13 19.5 67 21 -3.3 26.1
16:15 1022 30.18 851 25.13 19.1 66.3 20 -4 24.8
16:20 1022 30.18 851 25.13 19.8 67.6 20 -3.6 25.5
16:25 1022 30.18 851 25.13 19.7 67.5 21 -3 26.5
16:30 1022 30.18 851 25.13 19.9 67.8 21 -3.2 26.3
16:35 1022 30.18 851 25.13 19.9 67.7 21 -3.3 26.1
16:40 1022 30.18 851 25.13 19.6 67.3 20 -3.7 25.4
16:45 1022 30.18 851 25.13 20.4 68.6 19 -4 24.9
16:50 1021 30.15 851 25.13 20.5 68.9 19 -3.5 25.8
16:55 1021 30.15 851 25.13 20.7 69.3 19 -3.6 25.5
17:00 1021 30.15 851 25.13 20.9 69.5 19 -3.3 26.1
17:05 1021 30.15 850 25.1 20.9 69.5 19 -3.8 25.2
17:10 1021 30.15 850 25.1 20.5 68.8 21 -2.5 27.5
17:15 1021 30.15 850 25.1 19.9 67.8 20 -3.5 25.7
17:20 1021 30.15 850 25.1 19.4 66.9 22 -2.8 27
17:25 1021 30.15 850 25.1 19.3 66.7 21 -3.6 25.4
17:30 1021 30.15 850 25.1 19.4 66.9 21 -3.4 26
17:35 1021 30.15 850 25.1 19.9 67.9 21 -2.8 27
17:40 1021 30.15 850 25.1 20.5 68.8 19 -3.7 25.3
17:45 1021 30.15 850 25.1 20.1 68.2 21 -3 26.5
17:50 1021 30.15 850 25.1 19.5 67.2 21 -3.4 25.9
17:55 1021 30.15 850 25.1 19.3 66.8 21 -3.2 26.2
18:00 1020 30.12 850 25.1 19.2 66.6 21 -3.3 26.1
18:05 1020 30.12 850 25.1 19.2 66.5 21 -3.4 25.9
18:10 1020 30.12 850 25.1 18.9 66.1 22 -3.2 26.2
18:15 1020 30.12 850 25.1 18.8 65.9 22 -3.5 25.7
18:20 1020 30.12 850 25.1 18.7 65.7 22 -3.2 26.2
18:25 1020 30.12 849 25.07 18.8 65.9 22 -3.3 26
18:30 1020 30.12 849 25.07 18.7 65.7 22 -3.3 26
18:35 1020 30.12 849 25.07 18.6 65.5 22 -3.4 25.9
18:40 1020 30.12 849 25.07 18.6 65.4 22 -3.4 25.9
18:45 1020 30.12 849 25.07 18.5 65.4 23 -3.1 26.4
18:50 1020 30.12 849 25.07 18.5 65.2 23 -3 26.5
18:55 1020 30.12 849 25.07 18.4 65.2 23 -2.9 26.7
19:00 1020 30.12 849 25.07 18.4 65.1 23 -3.2 26.3
19:05 1020 30.12 849 25.07 18.3 64.9 23 -2.8 26.9
19:10 1020 30.12 849 25.07 18.1 64.7 24 -2.7 27.2
19:15 1020 30.12 849 25.07 18.1 64.5 23 -3 26.6
19:20 1020 30.12 849 25.07 18 64.4 24 -2.9 26.8
19:25 1020 30.12 849 25.07 18 64.3 24 -2.8 27
19:30 1020 30.12 849 25.07 17.9 64.2 24 -2.6 27.3
19:35 1020 30.12 849 25.07 17.6 63.6 31 0.1 32.3
19:40 1020 30.12 849 25.07 16.3 61.4 33 0.3 32.5
19:45 1020 30.12 849 25.07 15.6 60 36 0.7 33.3
19:50 1020 30.12 849 25.07 15.1 59.1 36 0.1 32.2
19:55 1020 30.12 849 25.07 14.5 58.2 37 -0 31.9
20:00 1020 30.12 849 25.07 14.1 57.3 39 0.3 32.5
20:05 1020 30.12 849 25.07 13.6 56.6 40 0.5 32.8
20:10 1020 30.12 849 25.07 13.3 56 42 0.8 33.5
20:15 1020 30.12 849 25.07 13 55.3 43 0.7 33.3
20:20 1020 30.12 849 25.07 12.8 55.1 42 0.1 32.2
20:25 1020 30.12 849 25.07 12.8 55.1 41 0.1 32.2
20:30 1020 30.12 849 25.07 12.8 55 41 0 32.1
20:35 1020 30.12 849 25.07 12.9 55.1 40 -0.2 31.6
20:40 1020 30.12 849 25.07 12.9 55.1 41 -0.1 31.8
20:45 1020 30.12 849 25.07 12.4 54.4 41 -0.3 31.5
20:50 1020 30.12 849 25.07 12 53.5 43 -0.2 31.7
20:55 1020 30.12 849 25.07 11.7 53.1 44 -0.2 31.6
21:00 1020 30.12 849 25.07 11.6 52.9 43 -0.4 31.3
21:05 1020 30.12 849 25.07 11.5 52.7 43 -0.5 31.1
21:10 1020 30.12 849 25.07 11.4 52.4 44 -0.5 31.1
21:15 1020 30.12 849 25.07 11.4 52.4 43 -0.6 31
21:20 1020 30.12 849 25.07 11.4 52.6 43 -0.8 30.6
21:25 1020 30.12 849 25.07 11.5 52.8 42 -0.8 30.6
21:30 1020 30.12 849 25.07 11.5 52.8 42 -0.8 30.6
21:35 1020 30.12 849 25.07 11.5 52.6 43 -0.7 30.7
21:40 1020 30.12 849 25.07 11.4 52.5 43 -0.6 30.9
21:45 1020 30.12 849 25.07 11 51.9 44 -0.7 30.7
21:50 1020 30.12 849 25.07 10.9 51.6 44 -0.8 30.5
21:55 1020 30.12 849 25.07 11 51.7 43 -1.1 30.1
22:00 1020 30.12 849 25.07 11.1 52 43 -1 30.2
22:05 1020 30.12 849 25.07 11.2 52.1 43 -0.8 30.5
22:10 1020 30.12 849 25.07 11 51.8 44 -0.7 30.7
22:15 1020 30.12 849 25.07 10.8 51.4 45 -0.7 30.7
22:20 1020 30.12 849 25.07 10.7 51.2 44 -1 30.2
22:25 1020 30.12 849 25.07 10.9 51.5 44 -0.9 30.3
22:30 1020 30.12 849 25.07 10.7 51.3 45 -0.7 30.7
22:35 1020 30.12 849 25.07 10.4 50.8 46 -0.7 30.7
22:40 1020 30.12 849 25.07 10.4 50.7 46 -0.8 30.6
22:45 1020 30.12 849 25.07 10.5 50.9 44 -1.1 30
22:50 1020 30.12 849 25.07 10.7 51.2 44 -0.9 30.4
22:55 1020 30.12 849 25.07 10.6 51 45 -0.9 30.4
23:00 1020 30.12 849 25.07 10.4 50.8 45 -1 30.2
23:05 1020 30.12 849 25.07 10.5 51 45 -1 30.3
23:10 1020 30.12 849 25.07 10.5 51 44 -1 30.1
23:15 1020 30.12 849 25.07 10.4 50.7 45 -0.9 30.3
23:20 1020 30.12 849 25.07 10.3 50.5 46 -0.8 30.5
23:25 1020 30.12 849 25.07 10.2 50.3 46 -0.9 30.4
23:30 1020 30.12 849 25.07 10 50.1 46 -0.9 30.4
23:35 1020 30.12 849 25.07 10.2 50.3 45 -1.1 30.1
23:40 1020 30.12 849 25.07 10.4 50.7 45 -0.8 30.5
23:45 1020 30.12 849 25.07 10.1 50.1 47 -0.6 30.9
23:50 1020 30.12 849 25.07 9.7 49.5 48 -0.8 30.5
23:55 1020 30.12 849 25.07 9.6 49.3 48 -0.7 30.7
24:00 1020 30.12 849 25.07 9.5 49.1 48 -0.9 30.4